sensor_id;sensor_type;location;lat;lon;timestamp;P1;durP1;ratioP1;P2;durP2;ratioP2
74213;SDS011;62576;55.694;37.494;2023-04-24T00:01:02;19.02;;;9.70;;
74213;SDS011;62576;55.694;37.494;2023-04-24T00:03:31;27.25;;;11.75;;
74213;SDS011;62576;55.694;37.494;2023-04-24T00:06:02;25.45;;;11.63;;
74213;SDS011;62576;55.694;37.494;2023-04-24T00:08:33;21.80;;;10.38;;
74213;SDS011;62576;55.694;37.494;2023-04-24T00:11:05;21.10;;;10.82;;
74213;SDS011;62576;55.694;37.494;2023-04-24T00:13:35;25.52;;;10.98;;
74213;SDS011;62576;55.694;37.494;2023-04-24T00:16:05;20.40;;;10.50;;
74213;SDS011;62576;55.694;37.494;2023-04-24T00:18:35;18.08;;;9.65;;
74213;SDS011;62576;55.694;37.494;2023-04-24T00:21:05;18.38;;;10.10;;
74213;SDS011;62576;55.694;37.494;2023-04-24T00:23:32;19.83;;;10.00;;
74213;SDS011;62576;55.694;37.494;2023-04-24T00:26:02;18.92;;;10.07;;
74213;SDS011;62576;55.694;37.494;2023-04-24T00:28:34;21.13;;;10.50;;
74213;SDS011;62576;55.694;37.494;2023-04-24T00:31:04;20.33;;;10.90;;
74213;SDS011;62576;55.694;37.494;2023-04-24T00:33:33;24.33;;;11.00;;
74213;SDS011;62576;55.694;37.494;2023-04-24T00:36:03;20.50;;;10.38;;
74213;SDS011;62576;55.694;37.494;2023-04-24T00:38:34;18.80;;;9.82;;
74213;SDS011;62576;55.694;37.494;2023-04-24T00:41:05;20.05;;;10.30;;
74213;SDS011;62576;55.694;37.494;2023-04-24T00:43:35;18.98;;;10.30;;
74213;SDS011;62576;55.694;37.494;2023-04-24T00:46:05;22.20;;;11.20;;
74213;SDS011;62576;55.694;37.494;2023-04-24T00:48:35;19.33;;;10.68;;
74213;SDS011;62576;55.694;37.494;2023-04-24T00:51:06;18.88;;;9.93;;
74213;SDS011;62576;55.694;37.494;2023-04-24T00:53:36;20.08;;;10.82;;
74213;SDS011;62576;55.694;37.494;2023-04-24T00:56:07;17.90;;;10.18;;
74213;SDS011;62576;55.694;37.494;2023-04-24T00:58:38;20.20;;;11.07;;
74213;SDS011;62576;55.694;37.494;2023-04-24T01:01:09;20.60;;;11.15;;
74213;SDS011;62576;55.694;37.494;2023-04-24T01:03:40;26.17;;;11.48;;
74213;SDS011;62576;55.694;37.494;2023-04-24T01:06:10;28.17;;;12.30;;
74213;SDS011;62576;55.694;37.494;2023-04-24T01:08:41;22.27;;;10.27;;
74213;SDS011;62576;55.694;37.494;2023-04-24T01:11:13;19.90;;;10.10;;
74213;SDS011;62576;55.694;37.494;2023-04-24T01:13:46;24.02;;;10.68;;
74213;SDS011;62576;55.694;37.494;2023-04-24T01:16:16;19.90;;;10.52;;
74213;SDS011;62576;55.694;37.494;2023-04-24T01:18:48;21.10;;;10.90;;
74213;SDS011;62576;55.694;37.494;2023-04-24T01:21:19;18.38;;;10.73;;
74213;SDS011;62576;55.694;37.494;2023-04-24T01:23:52;20.58;;;11.35;;
74213;SDS011;62576;55.694;37.494;2023-04-24T01:26:24;23.23;;;11.48;;
74213;SDS011;62576;55.694;37.494;2023-04-24T01:28:54;28.00;;;14.32;;
74213;SDS011;62576;55.694;37.494;2023-04-24T01:31:25;23.60;;;12.93;;
74213;SDS011;62576;55.694;37.494;2023-04-24T01:33:55;31.85;;;15.20;;
74213;SDS011;62576;55.694;37.494;2023-04-24T01:36:26;21.58;;;11.40;;
74213;SDS011;62576;55.694;37.494;2023-04-24T01:38:59;33.38;;;15.07;;
74213;SDS011;62576;55.694;37.494;2023-04-24T01:41:29;28.63;;;13.38;;
74213;SDS011;62576;55.694;37.494;2023-04-24T01:43:59;22.65;;;13.02;;
74213;SDS011;62576;55.694;37.494;2023-04-24T01:46:30;20.23;;;11.65;;
74213;SDS011;62576;55.694;37.494;2023-04-24T01:49:02;25.25;;;12.20;;
74213;SDS011;62576;55.694;37.494;2023-04-24T01:51:32;27.20;;;11.50;;
74213;SDS011;62576;55.694;37.494;2023-04-24T01:54:04;17.92;;;10.55;;
74213;SDS011;62576;55.694;37.494;2023-04-24T01:56:34;23.00;;;12.13;;
74213;SDS011;62576;55.694;37.494;2023-04-24T01:59:06;23.73;;;11.13;;
74213;SDS011;62576;55.694;37.494;2023-04-24T02:01:36;22.98;;;11.40;;
74213;SDS011;62576;55.694;37.494;2023-04-24T02:04:07;21.80;;;12.10;;
74213;SDS011;62576;55.694;37.494;2023-04-24T02:06:37;22.23;;;11.45;;
74213;SDS011;62576;55.694;37.494;2023-04-24T02:09:08;25.15;;;11.98;;
74213;SDS011;62576;55.694;37.494;2023-04-24T02:11:38;22.48;;;11.55;;
74213;SDS011;62576;55.694;37.494;2023-04-24T02:14:08;22.33;;;11.63;;
74213;SDS011;62576;55.694;37.494;2023-04-24T02:16:38;24.35;;;11.45;;
74213;SDS011;62576;55.694;37.494;2023-04-24T02:19:09;21.05;;;11.63;;
74213;SDS011;62576;55.694;37.494;2023-04-24T02:21:38;22.63;;;12.45;;
74213;SDS011;62576;55.694;37.494;2023-04-24T02:24:10;20.48;;;11.32;;
74213;SDS011;62576;55.694;37.494;2023-04-24T02:26:40;19.08;;;10.40;;
74213;SDS011;62576;55.694;37.494;2023-04-24T02:29:10;18.95;;;10.70;;
74213;SDS011;62576;55.694;37.494;2023-04-24T02:31:40;31.25;;;14.20;;
74213;SDS011;62576;55.694;37.494;2023-04-24T02:34:09;20.65;;;11.38;;
74213;SDS011;62576;55.694;37.494;2023-04-24T02:36:39;19.83;;;10.30;;
74213;SDS011;62576;55.694;37.494;2023-04-24T02:39:11;14.23;;;8.80;;
74213;SDS011;62576;55.694;37.494;2023-04-24T02:41:41;18.30;;;9.68;;
74213;SDS011;62576;55.694;37.494;2023-04-24T02:44:11;17.23;;;9.88;;
74213;SDS011;62576;55.694;37.494;2023-04-24T02:46:42;14.60;;;9.25;;
74213;SDS011;62576;55.694;37.494;2023-04-24T02:49:12;15.77;;;9.27;;
74213;SDS011;62576;55.694;37.494;2023-04-24T02:51:42;15.07;;;9.00;;
74213;SDS011;62576;55.694;37.494;2023-04-24T02:54:13;15.60;;;9.50;;
74213;SDS011;62576;55.694;37.494;2023-04-24T02:56:43;19.33;;;9.63;;
74213;SDS011;62576;55.694;37.494;2023-04-24T02:59:13;18.50;;;9.25;;
74213;SDS011;62576;55.694;37.494;2023-04-24T03:01:43;17.38;;;9.45;;
74213;SDS011;62576;55.694;37.494;2023-04-24T03:04:13;13.90;;;9.35;;
74213;SDS011;62576;55.694;37.494;2023-04-24T03:06:43;16.48;;;9.40;;
74213;SDS011;62576;55.694;37.494;2023-04-24T03:09:15;16.65;;;8.90;;
74213;SDS011;62576;55.694;37.494;2023-04-24T03:11:45;14.68;;;9.02;;
74213;SDS011;62576;55.694;37.494;2023-04-24T03:14:15;16.98;;;9.73;;
74213;SDS011;62576;55.694;37.494;2023-04-24T03:16:45;18.92;;;9.63;;
74213;SDS011;62576;55.694;37.494;2023-04-24T03:19:15;16.98;;;8.85;;
74213;SDS011;62576;55.694;37.494;2023-04-24T03:21:45;19.35;;;10.00;;
74213;SDS011;62576;55.694;37.494;2023-04-24T03:24:17;17.48;;;9.63;;
74213;SDS011;62576;55.694;37.494;2023-04-24T03:26:47;14.25;;;8.40;;
74213;SDS011;62576;55.694;37.494;2023-04-24T03:29:16;13.27;;;8.65;;
74213;SDS011;62576;55.694;37.494;2023-04-24T03:31:46;15.20;;;9.20;;
74213;SDS011;62576;55.694;37.494;2023-04-24T03:34:16;16.10;;;9.30;;
74213;SDS011;62576;55.694;37.494;2023-04-24T03:36:43;16.98;;;9.32;;
74213;SDS011;62576;55.694;37.494;2023-04-24T03:39:17;16.70;;;9.18;;
74213;SDS011;62576;55.694;37.494;2023-04-24T03:41:47;19.02;;;10.10;;
74213;SDS011;62576;55.694;37.494;2023-04-24T03:44:17;16.50;;;9.07;;
74213;SDS011;62576;55.694;37.494;2023-04-24T03:46:46;17.83;;;10.20;;
74213;SDS011;62576;55.694;37.494;2023-04-24T03:49:16;19.75;;;10.00;;
74213;SDS011;62576;55.694;37.494;2023-04-24T03:51:46;16.17;;;9.77;;
74213;SDS011;62576;55.694;37.494;2023-04-24T03:54:18;17.10;;;9.68;;
74213;SDS011;62576;55.694;37.494;2023-04-24T03:56:48;17.40;;;9.38;;
74213;SDS011;62576;55.694;37.494;2023-04-24T03:59:18;18.42;;;10.35;;
74213;SDS011;62576;55.694;37.494;2023-04-24T04:01:48;21.38;;;10.30;;
74213;SDS011;62576;55.694;37.494;2023-04-24T04:04:18;24.67;;;11.02;;
74213;SDS011;62576;55.694;37.494;2023-04-24T04:06:47;14.52;;;8.63;;
74213;SDS011;62576;55.694;37.494;2023-04-24T04:09:19;20.73;;;9.88;;
74213;SDS011;62576;55.694;37.494;2023-04-24T04:11:49;17.67;;;10.05;;
74213;SDS011;62576;55.694;37.494;2023-04-24T04:14:19;19.17;;;9.75;;
74213;SDS011;62576;55.694;37.494;2023-04-24T04:16:49;17.88;;;9.23;;
74213;SDS011;62576;55.694;37.494;2023-04-24T04:19:19;20.00;;;9.70;;
74213;SDS011;62576;55.694;37.494;2023-04-24T04:21:49;20.60;;;10.27;;
74213;SDS011;62576;55.694;37.494;2023-04-24T04:24:23;24.43;;;11.77;;
74213;SDS011;62576;55.694;37.494;2023-04-24T04:29:26;22.50;;;9.57;;
74213;SDS011;62576;55.694;37.494;2023-04-24T04:31:56;19.63;;;9.93;;
74213;SDS011;62576;55.694;37.494;2023-04-24T04:34:26;17.05;;;8.85;;
74213;SDS011;62576;55.694;37.494;2023-04-24T04:36:56;20.05;;;9.18;;
74213;SDS011;62576;55.694;37.494;2023-04-24T04:39:31;17.88;;;9.80;;
74213;SDS011;62576;55.694;37.494;2023-04-24T04:42:01;22.88;;;9.40;;
74213;SDS011;62576;55.694;37.494;2023-04-24T04:44:31;17.15;;;10.35;;
74213;SDS011;62576;55.694;37.494;2023-04-24T04:47:04;19.95;;;9.45;;
74213;SDS011;62576;55.694;37.494;2023-04-24T04:49:34;18.63;;;8.73;;
74213;SDS011;62576;55.694;37.494;2023-04-24T04:52:05;19.50;;;9.13;;
74213;SDS011;62576;55.694;37.494;2023-04-24T04:54:36;15.43;;;8.82;;
74213;SDS011;62576;55.694;37.494;2023-04-24T04:57:06;21.13;;;11.27;;
74213;SDS011;62576;55.694;37.494;2023-04-24T04:59:36;14.82;;;9.10;;
74213;SDS011;62576;55.694;37.494;2023-04-24T05:02:06;19.33;;;9.48;;
74213;SDS011;62576;55.694;37.494;2023-04-24T05:04:36;16.27;;;9.48;;
74213;SDS011;62576;55.694;37.494;2023-04-24T05:07:07;19.65;;;9.23;;
74213;SDS011;62576;55.694;37.494;2023-04-24T05:09:38;17.45;;;8.75;;
74213;SDS011;62576;55.694;37.494;2023-04-24T05:12:08;17.48;;;9.57;;
74213;SDS011;62576;55.694;37.494;2023-04-24T05:14:38;19.20;;;9.70;;
74213;SDS011;62576;55.694;37.494;2023-04-24T05:17:08;17.55;;;8.88;;
74213;SDS011;62576;55.694;37.494;2023-04-24T05:19:38;13.90;;;8.60;;
74213;SDS011;62576;55.694;37.494;2023-04-24T05:22:09;17.58;;;9.13;;
74213;SDS011;62576;55.694;37.494;2023-04-24T05:24:41;16.83;;;9.15;;
74213;SDS011;62576;55.694;37.494;2023-04-24T05:27:11;18.70;;;9.30;;
74213;SDS011;62576;55.694;37.494;2023-04-24T05:29:41;15.30;;;8.80;;
74213;SDS011;62576;55.694;37.494;2023-04-24T05:32:11;18.92;;;9.05;;
74213;SDS011;62576;55.694;37.494;2023-04-24T05:34:38;23.95;;;9.55;;
74213;SDS011;62576;55.694;37.494;2023-04-24T05:37:08;21.58;;;9.25;;
74213;SDS011;62576;55.694;37.494;2023-04-24T05:39:38;20.27;;;9.68;;
74213;SDS011;62576;55.694;37.494;2023-04-24T05:42:11;19.25;;;9.18;;
74213;SDS011;62576;55.694;37.494;2023-04-24T05:44:41;23.25;;;9.95;;
74213;SDS011;62576;55.694;37.494;2023-04-24T05:47:11;16.08;;;9.13;;
74213;SDS011;62576;55.694;37.494;2023-04-24T05:49:41;19.88;;;9.30;;
74213;SDS011;62576;55.694;37.494;2023-04-24T05:52:11;19.52;;;9.00;;
74213;SDS011;62576;55.694;37.494;2023-04-24T05:54:41;21.98;;;8.63;;
74213;SDS011;62576;55.694;37.494;2023-04-24T05:57:12;18.52;;;9.30;;
74213;SDS011;62576;55.694;37.494;2023-04-24T05:59:42;24.27;;;8.45;;
74213;SDS011;62576;55.694;37.494;2023-04-24T06:02:12;18.80;;;7.90;;
74213;SDS011;62576;55.694;37.494;2023-04-24T06:04:42;15.68;;;8.25;;
74213;SDS011;62576;55.694;37.494;2023-04-24T06:07:12;15.38;;;7.93;;
74213;SDS011;62576;55.694;37.494;2023-04-24T06:09:42;16.38;;;8.10;;
74213;SDS011;62576;55.694;37.494;2023-04-24T06:12:14;24.13;;;7.97;;
74213;SDS011;62576;55.694;37.494;2023-04-24T06:14:44;15.35;;;7.93;;
74213;SDS011;62576;55.694;37.494;2023-04-24T06:17:14;15.93;;;8.90;;
74213;SDS011;62576;55.694;37.494;2023-04-24T06:19:45;18.92;;;7.55;;
74213;SDS011;62576;55.694;37.494;2023-04-24T06:22:15;15.05;;;8.07;;
74213;SDS011;62576;55.694;37.494;2023-04-24T06:24:45;13.57;;;7.53;;
74213;SDS011;62576;55.694;37.494;2023-04-24T06:27:18;26.70;;;8.00;;
74213;SDS011;62576;55.694;37.494;2023-04-24T06:29:48;16.92;;;8.00;;
74213;SDS011;62576;55.694;37.494;2023-04-24T06:32:22;20.40;;;7.68;;
74213;SDS011;62576;55.694;37.494;2023-04-24T06:34:50;16.63;;;7.53;;
74213;SDS011;62576;55.694;37.494;2023-04-24T06:37:21;17.52;;;7.82;;
74213;SDS011;62576;55.694;37.494;2023-04-24T06:39:51;15.82;;;7.00;;
74213;SDS011;62576;55.694;37.494;2023-04-24T06:42:22;13.65;;;7.63;;
74213;SDS011;62576;55.694;37.494;2023-04-24T06:44:52;20.55;;;7.75;;
74213;SDS011;62576;55.694;37.494;2023-04-24T06:47:22;14.98;;;7.60;;
74213;SDS011;62576;55.694;37.494;2023-04-24T06:49:53;15.65;;;7.32;;
74213;SDS011;62576;55.694;37.494;2023-04-24T06:52:23;14.05;;;7.32;;
74213;SDS011;62576;55.694;37.494;2023-04-24T06:54:59;15.40;;;7.85;;
74213;SDS011;62576;55.694;37.494;2023-04-24T06:57:31;16.13;;;7.20;;
74213;SDS011;62576;55.694;37.494;2023-04-24T07:00:01;18.40;;;7.72;;
74213;SDS011;62576;55.694;37.494;2023-04-24T07:02:33;16.13;;;7.47;;
74213;SDS011;62576;55.694;37.494;2023-04-24T07:05:06;13.48;;;6.78;;
74213;SDS011;62576;55.694;37.494;2023-04-24T07:07:37;16.63;;;7.45;;
74213;SDS011;62576;55.694;37.494;2023-04-24T07:10:08;18.70;;;7.55;;
74213;SDS011;62576;55.694;37.494;2023-04-24T07:12:40;17.17;;;7.38;;
74213;SDS011;62576;55.694;37.494;2023-04-24T07:15:10;15.18;;;7.53;;
74213;SDS011;62576;55.694;37.494;2023-04-24T07:17:40;12.88;;;7.13;;
74213;SDS011;62576;55.694;37.494;2023-04-24T07:20:12;16.17;;;7.00;;
74213;SDS011;62576;55.694;37.494;2023-04-24T07:22:42;11.82;;;6.55;;
74213;SDS011;62576;55.694;37.494;2023-04-24T07:25:13;17.48;;;6.75;;
74213;SDS011;62576;55.694;37.494;2023-04-24T07:27:45;12.60;;;7.30;;
74213;SDS011;62576;55.694;37.494;2023-04-24T07:30:16;16.83;;;7.45;;
74213;SDS011;62576;55.694;37.494;2023-04-24T07:32:46;15.57;;;7.07;;
74213;SDS011;62576;55.694;37.494;2023-04-24T07:35:13;15.10;;;7.30;;
74213;SDS011;62576;55.694;37.494;2023-04-24T07:37:43;14.68;;;6.72;;
74213;SDS011;62576;55.694;37.494;2023-04-24T07:40:13;14.52;;;6.63;;
74213;SDS011;62576;55.694;37.494;2023-04-24T07:42:45;13.60;;;6.20;;
74213;SDS011;62576;55.694;37.494;2023-04-24T07:45:16;17.65;;;6.72;;
74213;SDS011;62576;55.694;37.494;2023-04-24T07:47:46;12.05;;;6.35;;
74213;SDS011;62576;55.694;37.494;2023-04-24T07:50:16;18.75;;;5.90;;
74213;SDS011;62576;55.694;37.494;2023-04-24T07:52:46;10.32;;;5.72;;
74213;SDS011;62576;55.694;37.494;2023-04-24T07:55:16;10.75;;;5.63;;
74213;SDS011;62576;55.694;37.494;2023-04-24T07:57:48;8.88;;;5.55;;
74213;SDS011;62576;55.694;37.494;2023-04-24T08:00:18;11.40;;;5.37;;
74213;SDS011;62576;55.694;37.494;2023-04-24T08:02:49;12.95;;;5.80;;
74213;SDS011;62576;55.694;37.494;2023-04-24T08:05:19;11.30;;;5.38;;
74213;SDS011;62576;55.694;37.494;2023-04-24T08:07:48;11.98;;;5.35;;
74213;SDS011;62576;55.694;37.494;2023-04-24T08:10:21;10.15;;;5.53;;
74213;SDS011;62576;55.694;37.494;2023-04-24T08:12:53;9.02;;;5.38;;
74213;SDS011;62576;55.694;37.494;2023-04-24T08:17:54;8.88;;;5.28;;
74213;SDS011;62576;55.694;37.494;2023-04-24T08:20:25;12.80;;;5.80;;
74213;SDS011;62576;55.694;37.494;2023-04-24T08:22:55;12.88;;;5.65;;
74213;SDS011;62576;55.694;37.494;2023-04-24T08:25:25;8.68;;;5.28;;
74213;SDS011;62576;55.694;37.494;2023-04-24T08:27:57;8.30;;;5.47;;
74213;SDS011;62576;55.694;37.494;2023-04-24T08:30:27;8.38;;;5.60;;
74213;SDS011;62576;55.694;37.494;2023-04-24T08:32:55;9.38;;;5.65;;
74213;SDS011;62576;55.694;37.494;2023-04-24T08:35:22;8.40;;;5.45;;
74213;SDS011;62576;55.694;37.494;2023-04-24T08:37:52;17.42;;;5.50;;
74213;SDS011;62576;55.694;37.494;2023-04-24T08:40:26;10.10;;;5.50;;
74213;SDS011;62576;55.694;37.494;2023-04-24T08:43:04;9.25;;;5.72;;
74213;SDS011;62576;55.694;37.494;2023-04-24T08:45:35;9.80;;;5.28;;
74213;SDS011;62576;55.694;37.494;2023-04-24T08:48:06;9.50;;;5.25;;
74213;SDS011;62576;55.694;37.494;2023-04-24T08:50:37;8.80;;;5.22;;
74213;SDS011;62576;55.694;37.494;2023-04-24T08:53:11;11.27;;;5.30;;
74213;SDS011;62576;55.694;37.494;2023-04-24T08:55:41;11.60;;;5.40;;
74213;SDS011;62576;55.694;37.494;2023-04-24T08:58:17;10.50;;;5.20;;
74213;SDS011;62576;55.694;37.494;2023-04-24T09:00:48;10.00;;;5.10;;
74213;SDS011;62576;55.694;37.494;2023-04-24T09:03:18;11.80;;;5.00;;
74213;SDS011;62576;55.694;37.494;2023-04-24T09:05:50;7.20;;;4.93;;
74213;SDS011;62576;55.694;37.494;2023-04-24T09:08:24;10.25;;;5.10;;
74213;SDS011;62576;55.694;37.494;2023-04-24T09:10:54;12.10;;;5.18;;
74213;SDS011;62576;55.694;37.494;2023-04-24T09:13:28;12.75;;;5.68;;
74213;SDS011;62576;55.694;37.494;2023-04-24T09:16:00;11.02;;;5.35;;
74213;SDS011;62576;55.694;37.494;2023-04-24T09:18:30;7.65;;;5.30;;
74213;SDS011;62576;55.694;37.494;2023-04-24T09:21:01;13.10;;;5.28;;
74213;SDS011;62576;55.694;37.494;2023-04-24T09:23:33;7.32;;;5.10;;
74213;SDS011;62576;55.694;37.494;2023-04-24T09:26:03;7.30;;;5.35;;
74213;SDS011;62576;55.694;37.494;2023-04-24T09:28:36;8.43;;;5.13;;
74213;SDS011;62576;55.694;37.494;2023-04-24T09:31:09;10.38;;;5.25;;
74213;SDS011;62576;55.694;37.494;2023-04-24T09:33:45;8.65;;;5.28;;
74213;SDS011;62576;55.694;37.494;2023-04-24T09:36:27;8.02;;;4.88;;
74213;SDS011;62576;55.694;37.494;2023-04-24T09:39:00;9.98;;;5.00;;
74213;SDS011;62576;55.694;37.494;2023-04-24T09:44:12;12.38;;;4.90;;
74213;SDS011;62576;55.694;37.494;2023-04-24T09:46:44;8.38;;;4.65;;
74213;SDS011;62576;55.694;37.494;2023-04-24T09:49:21;7.72;;;4.72;;
74213;SDS011;62576;55.694;37.494;2023-04-24T09:52:01;9.02;;;5.20;;
74213;SDS011;62576;55.694;37.494;2023-04-24T09:54:32;7.80;;;4.55;;
74213;SDS011;62576;55.694;37.494;2023-04-24T09:57:05;9.05;;;5.20;;
74213;SDS011;62576;55.694;37.494;2023-04-24T09:59:45;6.90;;;4.85;;
74213;SDS011;62576;55.694;37.494;2023-04-24T10:02:16;8.68;;;5.15;;
74213;SDS011;62576;55.694;37.494;2023-04-24T10:04:54;7.68;;;4.65;;
74213;SDS011;62576;55.694;37.494;2023-04-24T10:07:25;8.20;;;5.45;;
74213;SDS011;62576;55.694;37.494;2023-04-24T10:09:56;9.38;;;5.25;;
74213;SDS011;62576;55.694;37.494;2023-04-24T10:12:26;7.82;;;4.70;;
74213;SDS011;62576;55.694;37.494;2023-04-24T10:14:58;7.13;;;4.73;;
74213;SDS011;62576;55.694;37.494;2023-04-24T10:17:30;9.20;;;5.00;;
74213;SDS011;62576;55.694;37.494;2023-04-24T10:20:00;8.30;;;4.50;;
74213;SDS011;62576;55.694;37.494;2023-04-24T10:22:31;9.95;;;4.78;;
74213;SDS011;62576;55.694;37.494;2023-04-24T10:25:03;8.10;;;4.80;;
74213;SDS011;62576;55.694;37.494;2023-04-24T10:27:35;9.88;;;4.85;;
74213;SDS011;62576;55.694;37.494;2023-04-24T10:32:40;9.52;;;4.80;;
74213;SDS011;62576;55.694;37.494;2023-04-24T10:35:08;7.05;;;4.78;;
74213;SDS011;62576;55.694;37.494;2023-04-24T10:37:39;7.57;;;4.90;;
74213;SDS011;62576;55.694;37.494;2023-04-24T10:40:16;8.10;;;5.00;;
74213;SDS011;62576;55.694;37.494;2023-04-24T10:42:48;9.27;;;5.28;;
74213;SDS011;62576;55.694;37.494;2023-04-24T10:45:23;9.77;;;4.70;;
74213;SDS011;62576;55.694;37.494;2023-04-24T10:47:56;7.63;;;4.90;;
74213;SDS011;62576;55.694;37.494;2023-04-24T10:50:28;6.80;;;4.60;;
74213;SDS011;62576;55.694;37.494;2023-04-24T10:53:05;6.72;;;4.88;;
74213;SDS011;62576;55.694;37.494;2023-04-24T10:55:40;9.02;;;4.82;;
74213;SDS011;62576;55.694;37.494;2023-04-24T10:58:12;9.93;;;4.90;;
74213;SDS011;62576;55.694;37.494;2023-04-24T11:00:54;9.35;;;5.20;;
74213;SDS011;62576;55.694;37.494;2023-04-24T11:03:27;8.63;;;4.50;;
74213;SDS011;62576;55.694;37.494;2023-04-24T11:05:59;7.13;;;4.38;;
74213;SDS011;62576;55.694;37.494;2023-04-24T11:08:32;6.95;;;4.93;;
74213;SDS011;62576;55.694;37.494;2023-04-24T11:11:10;6.97;;;4.70;;
74213;SDS011;62576;55.694;37.494;2023-04-24T11:16:37;9.23;;;4.97;;
74213;SDS011;62576;55.694;37.494;2023-04-24T11:21:58;8.32;;;4.35;;
74213;SDS011;62576;55.694;37.494;2023-04-24T11:24:30;6.85;;;4.63;;
74213;SDS011;62576;55.694;37.494;2023-04-24T11:27:05;8.13;;;4.60;;
74213;SDS011;62576;55.694;37.494;2023-04-24T11:29:43;5.32;;;4.32;;
74213;SDS011;62576;55.694;37.494;2023-04-24T11:32:17;9.73;;;4.43;;
74213;SDS011;62576;55.694;37.494;2023-04-24T11:34:49;7.07;;;4.53;;
74213;SDS011;62576;55.694;37.494;2023-04-24T11:37:18;8.32;;;4.97;;
74213;SDS011;62576;55.694;37.494;2023-04-24T11:39:50;10.50;;;5.13;;
74213;SDS011;62576;55.694;37.494;2023-04-24T11:42:21;8.10;;;4.78;;
74213;SDS011;62576;55.694;37.494;2023-04-24T11:44:53;7.32;;;4.63;;
74213;SDS011;62576;55.694;37.494;2023-04-24T11:47:29;11.15;;;4.45;;
74213;SDS011;62576;55.694;37.494;2023-04-24T11:50:02;7.57;;;4.55;;
74213;SDS011;62576;55.694;37.494;2023-04-24T11:52:36;8.38;;;4.30;;
74213;SDS011;62576;55.694;37.494;2023-04-24T11:55:23;5.55;;;4.03;;
74213;SDS011;62576;55.694;37.494;2023-04-24T11:57:55;7.78;;;4.20;;
74213;SDS011;62576;55.694;37.494;2023-04-24T12:00:27;8.30;;;4.75;;
74213;SDS011;62576;55.694;37.494;2023-04-24T12:05:44;7.15;;;4.30;;
74213;SDS011;62576;55.694;37.494;2023-04-24T12:08:26;8.15;;;4.70;;
74213;SDS011;62576;55.694;37.494;2023-04-24T12:11:00;11.05;;;5.28;;
74213;SDS011;62576;55.694;37.494;2023-04-24T12:13:31;8.23;;;4.35;;
74213;SDS011;62576;55.694;37.494;2023-04-24T12:16:01;8.25;;;4.25;;
74213;SDS011;62576;55.694;37.494;2023-04-24T12:18:34;10.40;;;4.25;;
74213;SDS011;62576;55.694;37.494;2023-04-24T12:21:17;6.35;;;4.20;;
74213;SDS011;62576;55.694;37.494;2023-04-24T12:23:48;8.68;;;4.50;;
74213;SDS011;62576;55.694;37.494;2023-04-24T12:26:19;6.30;;;3.90;;
74213;SDS011;62576;55.694;37.494;2023-04-24T12:28:50;5.03;;;4.00;;
74213;SDS011;62576;55.694;37.494;2023-04-24T12:31:20;6.00;;;4.25;;
74213;SDS011;62576;55.694;37.494;2023-04-24T12:33:53;6.45;;;4.00;;
74213;SDS011;62576;55.694;37.494;2023-04-24T12:36:24;8.75;;;4.15;;
74213;SDS011;62576;55.694;37.494;2023-04-24T12:38:56;10.02;;;4.30;;
74213;SDS011;62576;55.694;37.494;2023-04-24T12:41:26;7.72;;;4.45;;
74213;SDS011;62576;55.694;37.494;2023-04-24T12:43:56;5.35;;;3.95;;
74213;SDS011;62576;55.694;37.494;2023-04-24T12:46:26;8.38;;;4.75;;
74213;SDS011;62576;55.694;37.494;2023-04-24T12:48:57;10.07;;;4.95;;
74213;SDS011;62576;55.694;37.494;2023-04-24T12:51:28;11.73;;;4.88;;
74213;SDS011;62576;55.694;37.494;2023-04-24T12:53:58;9.70;;;4.43;;
74213;SDS011;62576;55.694;37.494;2023-04-24T12:56:28;10.77;;;4.07;;
74213;SDS011;62576;55.694;37.494;2023-04-24T12:58:59;9.85;;;4.22;;
74213;SDS011;62576;55.694;37.494;2023-04-24T13:01:29;5.95;;;4.25;;
74213;SDS011;62576;55.694;37.494;2023-04-24T13:04:00;9.02;;;4.30;;
74213;SDS011;62576;55.694;37.494;2023-04-24T13:06:30;8.93;;;3.90;;
74213;SDS011;62576;55.694;37.494;2023-04-24T13:09:00;6.43;;;3.80;;
74213;SDS011;62576;55.694;37.494;2023-04-24T13:11:31;8.88;;;4.30;;
74213;SDS011;62576;55.694;37.494;2023-04-24T13:14:01;5.78;;;4.05;;
74213;SDS011;62576;55.694;37.494;2023-04-24T13:16:31;8.07;;;3.70;;
74213;SDS011;62576;55.694;37.494;2023-04-24T13:19:03;9.88;;;4.15;;
74213;SDS011;62576;55.694;37.494;2023-04-24T13:21:33;7.43;;;3.83;;
74213;SDS011;62576;55.694;37.494;2023-04-24T13:24:03;7.38;;;4.07;;
74213;SDS011;62576;55.694;37.494;2023-04-24T13:26:35;7.20;;;4.55;;
74213;SDS011;62576;55.694;37.494;2023-04-24T13:29:05;6.78;;;3.97;;
74213;SDS011;62576;55.694;37.494;2023-04-24T13:31:36;13.70;;;4.70;;
74213;SDS011;62576;55.694;37.494;2023-04-24T13:34:08;8.57;;;4.18;;
74213;SDS011;62576;55.694;37.494;2023-04-24T13:36:40;7.25;;;4.10;;
74213;SDS011;62576;55.694;37.494;2023-04-24T13:39:10;7.85;;;4.38;;
74213;SDS011;62576;55.694;37.494;2023-04-24T13:41:40;7.07;;;4.30;;
74213;SDS011;62576;55.694;37.494;2023-04-24T13:44:10;6.05;;;4.07;;
74213;SDS011;62576;55.694;37.494;2023-04-24T13:46:40;7.75;;;4.20;;
74213;SDS011;62576;55.694;37.494;2023-04-24T13:49:13;9.77;;;4.38;;
74213;SDS011;62576;55.694;37.494;2023-04-24T13:51:44;8.10;;;4.40;;
74213;SDS011;62576;55.694;37.494;2023-04-24T13:54:15;7.00;;;4.97;;
74213;SDS011;62576;55.694;37.494;2023-04-24T13:56:45;8.32;;;4.55;;
74213;SDS011;62576;55.694;37.494;2023-04-24T13:59:15;8.55;;;4.20;;
74213;SDS011;62576;55.694;37.494;2023-04-24T14:01:45;6.15;;;4.32;;
74213;SDS011;62576;55.694;37.494;2023-04-24T14:04:17;8.32;;;4.03;;
74213;SDS011;62576;55.694;37.494;2023-04-24T14:06:47;7.72;;;4.00;;
74213;SDS011;62576;55.694;37.494;2023-04-24T14:09:17;6.20;;;4.43;;
74213;SDS011;62576;55.694;37.494;2023-04-24T14:11:46;5.85;;;4.35;;
74213;SDS011;62576;55.694;37.494;2023-04-24T14:14:16;12.65;;;4.57;;
74213;SDS011;62576;55.694;37.494;2023-04-24T14:16:47;8.52;;;3.92;;
74213;SDS011;62576;55.694;37.494;2023-04-24T14:19:18;6.50;;;3.90;;
74213;SDS011;62576;55.694;37.494;2023-04-24T14:21:48;7.68;;;4.32;;
74213;SDS011;62576;55.694;37.494;2023-04-24T14:24:18;7.68;;;4.30;;
74213;SDS011;62576;55.694;37.494;2023-04-24T14:26:48;7.85;;;4.05;;
74213;SDS011;62576;55.694;37.494;2023-04-24T14:29:18;7.45;;;4.10;;
74213;SDS011;62576;55.694;37.494;2023-04-24T14:31:48;9.02;;;4.15;;
74213;SDS011;62576;55.694;37.494;2023-04-24T14:34:20;8.43;;;4.20;;
74213;SDS011;62576;55.694;37.494;2023-04-24T14:36:50;7.45;;;4.05;;
74213;SDS011;62576;55.694;37.494;2023-04-24T14:39:20;8.38;;;4.03;;
74213;SDS011;62576;55.694;37.494;2023-04-24T14:41:47;8.65;;;3.90;;
74213;SDS011;62576;55.694;37.494;2023-04-24T14:44:17;9.27;;;4.10;;
74213;SDS011;62576;55.694;37.494;2023-04-24T14:46:48;6.75;;;4.13;;
74213;SDS011;62576;55.694;37.494;2023-04-24T14:49:19;9.73;;;4.20;;
74213;SDS011;62576;55.694;37.494;2023-04-24T14:51:49;7.10;;;3.80;;
74213;SDS011;62576;55.694;37.494;2023-04-24T14:54:22;6.35;;;4.18;;
74213;SDS011;62576;55.694;37.494;2023-04-24T14:56:53;7.25;;;4.00;;
74213;SDS011;62576;55.694;37.494;2023-04-24T14:59:24;7.70;;;3.97;;
74213;SDS011;62576;55.694;37.494;2023-04-24T15:01:54;7.35;;;4.25;;
74213;SDS011;62576;55.694;37.494;2023-04-24T15:04:27;6.82;;;3.92;;